Nashville, Ohio
Current Conditions -  °F | °C
As of 10:56 PM on Thursday 18 Dec 2014 (Local Time) from KBJJ Reporting Station
Haze Haze  
Wind Chill: 19°   Ceiling: 800
Heat Index: 28°   Visibility: 6mi
Dew Point: 25°   Wind: 9mph
Humidity: 88%   Direction: 260°W
Pressure: 30.17"   Gusts: NA
Location:  40.6°N, 82.11°W
Report Text: KBJJ 190356Z AUTO 26008KT 6SM BR OVC008 M02/M04 A3017 RMK AO2 CIG 006V011 SLP230 I1000 T10221039 TSNO
Loading
Personal Weather Stations






























Interactive Weather Map New forecast layout! Learn more

10-Day Weather Forecast

Advertisements
Track Severe Weather on mobile